Time;durP1;ratioP1;P1;durP2;ratioP2;P2;SDS_P1;SDS_P2;PMS_P1;PMS_P2;Temp;Humidity;BMP_temperature;BMP_pressure;BME280_temperature;BME280_humidity;BME280_pressure;Samples;Min_cycle;Max_cycle;Signal;HPM_P1;HPM_P2
2022/05/07 00:00:26;;;;;;;18.35;15.82;;;;;;;15.34;60.96;102197.28;5072003;28;20056;-62
2022/05/07 00:02:52;;;;;;;19.38;16.48;;;;;;;15.33;60.88;102195.56;5053543;28;20040;-62
2022/05/07 00:05:20;;;;;;;18.52;16.42;;;;;;;15.25;61.08;102187.13;5069881;28;20044;-62
2022/05/07 00:07:47;;;;;;;18.75;16.17;;;;;;;15.22;61.09;102180.13;5070426;28;20411;-62
2022/05/07 00:10:12;;;;;;;17.95;16.02;;;;;;;15.27;61.26;102185.22;5070709;28;20090;-62
2022/05/07 00:12:38;;;;;;;20.45;16.75;;;;;;;15.27;61.35;102192.41;5070127;28;20476;-62
2022/05/07 00:15:08;;;;;;;17.83;15.85;;;;;;;15.24;61.48;102180.06;5070012;28;20032;-62
2022/05/07 00:20:21;;;;;;;19.05;16.05;;;;;;;15.15;61.83;102173.44;5071094;28;20052;-62
2022/05/07 00:22:46;;;;;;;18.88;16.13;;;;;;;15.01;61.79;102164.53;5070128;28;20040;-62
2022/05/07 00:25:12;;;;;;;17.95;15.80;;;;;;;14.93;62.49;102179.22;5070162;28;20036;-62
2022/05/07 00:27:38;;;;;;;21.00;16.60;;;;;;;14.93;62.08;102181.06;5070900;28;20024;-62
2022/05/07 00:30:05;;;;;;;17.52;15.77;;;;;;;14.94;61.96;102174.72;5069583;28;20113;-62
2022/05/07 00:32:31;;;;;;;18.20;16.30;;;;;;;14.91;62.26;102175.81;5071679;28;20024;-62
2022/05/07 00:34:57;;;;;;;20.40;17.33;;;;;;;14.89;62.40;102175.03;5069965;28;20036;-62
2022/05/07 00:37:23;;;;;;;20.10;16.90;;;;;;;14.86;62.46;102163.63;5071464;28;20036;-62
2022/05/07 00:39:49;;;;;;;19.80;16.85;;;;;;;14.78;62.57;102164.06;5070137;28;20120;-62
2022/05/07 00:42:15;;;;;;;20.88;17.20;;;;;;;14.81;62.82;102168.41;5070170;28;20111;-62
2022/05/07 00:44:41;;;;;;;23.02;16.92;;;;;;;14.76;63.14;102163.31;5070786;28;20028;-62
2022/05/07 00:47:09;;;;;;;22.10;18.00;;;;;;;14.62;63.29;102157.91;5071724;28;20039;-62
2022/05/07 00:49:35;;;;;;;19.33;17.25;;;;;;;14.71;63.15;102165.41;5069851;28;20032;-62
2022/05/07 00:52:01;;;;;;;22.63;17.67;;;;;;;14.59;63.44;102153.63;5071355;28;20028;-62
2022/05/07 00:54:27;;;;;;;20.27;17.92;;;;;;;14.61;63.51;102157.03;5069810;28;20050;-62
2022/05/07 00:56:52;;;;;;;19.55;16.95;;;;;;;14.62;63.33;102156.09;5070260;28;20036;-62
2022/05/07 00:59:17;;;;;;;21.80;17.48;;;;;;;14.63;63.35;102157.81;5070623;28;20449;-62
2022/05/07 01:01:44;;;;;;;20.10;16.92;;;;;;;14.58;63.43;102154.53;5069504;28;20388;-62
2022/05/07 01:04:10;;;;;;;20.02;16.85;;;;;;;14.62;63.23;102161.47;5069486;28;20063;-62
2022/05/07 01:06:36;;;;;;;21.52;18.55;;;;;;;14.46;63.73;102165.94;5070517;28;20090;-62
2022/05/07 01:09:02;;;;;;;21.42;17.33;;;;;;;14.52;63.68;102160.25;5071243;28;20029;-62
2022/05/07 01:11:28;;;;;;;19.98;17.38;;;;;;;14.29;64.23;102157.09;5071903;28;20020;-61
2022/05/07 01:13:53;;;;;;;22.60;18.25;;;;;;;14.36;64.16;102154.91;5070535;28;20445;-62
2022/05/07 01:16:19;;;;;;;22.00;18.42;;;;;;;14.30;64.18;102156.13;5086125;28;20044;-62
2022/05/07 01:18:45;;;;;;;22.15;17.70;;;;;;;14.36;64.24;102154.91;5070846;28;20122;-62
2022/05/07 01:21:17;;;;;;;21.40;18.30;;;;;;;14.36;64.21;102151.38;5069145;28;20032;-62
2022/05/07 01:23:44;;;;;;;21.20;18.80;;;;;;;14.37;64.30;102153.09;5069828;28;20035;-62
2022/05/07 01:26:11;;;;;;;24.67;19.30;;;;;;;14.29;64.54;102140.16;5070303;28;20078;-62
2022/05/07 01:28:37;;;;;;;20.80;18.52;;;;;;;14.35;64.34;102137.13;5071016;28;20032;-62
2022/05/07 01:31:03;;;;;;;21.50;19.30;;;;;;;14.30;64.49;102137.41;5088892;28;20439;-62
2022/05/07 01:33:33;;;;;;;22.42;20.02;;;;;;;14.20;65.11;102140.69;5083271;28;20399;-62
2022/05/07 01:36:02;;;;;;;24.30;20.73;;;;;;;14.19;65.24;102139.81;5053080;28;20391;-62
2022/05/07 01:38:31;;;;;;;22.33;19.92;;;;;;;14.22;64.85;102133.44;5070948;28;20094;-62
2022/05/07 01:40:57;;;;;;;23.83;20.53;;;;;;;14.17;65.06;102131.00;5087335;28;20036;-62
2022/05/07 01:43:22;;;;;;;24.42;20.98;;;;;;;13.96;65.58;102129.59;5075607;28;20275;-62
2022/05/07 01:45:48;;;;;;;22.90;19.77;;;;;;;14.09;65.24;102127.94;5075588;28;20031;-62
2022/05/07 01:48:13;;;;;;;24.77;22.00;;;;;;;13.99;65.76;102135.63;5057093;28;20494;-62
2022/05/07 01:50:41;;;;;;;24.70;21.17;;;;;;;14.01;65.38;102135.53;5074320;28;20032;-62
2022/05/07 01:53:08;;;;;;;23.52;20.40;;;;;;;14.00;65.64;102128.44;5075062;28;20108;-62
2022/05/07 01:55:34;;;;;;;23.40;20.63;;;;;;;13.99;65.92;102135.63;5074794;28;20503;-62
2022/05/07 01:58:00;;;;;;;22.38;20.08;;;;;;;14.09;65.23;102128.81;5075295;28;20040;-62
2022/05/07 02:00:29;;;;;;;23.15;20.30;;;;;;;13.94;65.83;102126.13;5074839;28;20155;-62
2022/05/07 02:02:55;;;;;;;23.70;20.70;;;;;;;13.96;66.01;102124.22;5072162;28;20028;-61
2022/05/07 02:05:21;;;;;;;23.20;20.58;;;;;;;14.04;65.86;102130.00;5073750;28;20559;-62
2022/05/07 02:07:47;;;;;;;23.80;21.30;;;;;;;13.92;66.32;102126.22;5057328;28;20032;-62
2022/05/07 02:10:13;;;;;;;23.17;20.67;;;;;;;13.88;66.34;102118.44;5073616;28;20024;-62
2022/05/07 02:12:38;;;;;;;23.20;20.63;;;;;;;13.89;66.53;102120.19;5074217;28;20052;-62
2022/05/07 02:15:05;;;;;;;25.85;21.48;;;;;;;13.86;66.69;102116.72;5072208;28;20030;-62
2022/05/07 02:17:31;;;;;;;23.35;20.90;;;;;;;13.91;66.59;102115.59;5073974;28;20051;-62
2022/05/07 02:19:57;;;;;;;26.65;21.48;;;;;;;13.96;66.60;102122.41;5073040;28;20033;-62
2022/05/07 02:22:23;;;;;;;22.73;19.70;;;;;;;13.96;66.53;102116.19;5074390;28;20040;-62
2022/05/07 02:24:48;;;;;;;23.92;20.50;;;;;;;13.93;66.93;102114.56;5074229;28;20025;-62
2022/05/07 02:27:14;;;;;;;25.00;20.67;;;;;;;13.86;66.85;102121.22;5056705;28;20028;-62
2022/05/07 02:29:43;;;;;;;24.92;22.15;;;;;;;13.81;67.61;102121.47;5090068;28;20033;-62
2022/05/07 02:32:09;;;;;;;24.27;20.98;;;;;;;13.81;67.35;102121.47;5077179;28;20047;-62
2022/05/07 02:34:36;;;;;;;26.58;22.02;;;;;;;13.88;66.76;102121.13;5054673;28;20025;-62
2022/05/07 02:37:06;;;;;;;24.30;21.23;;;;;;;13.86;67.18;102111.38;5071993;28;20032;-62
2022/05/07 02:39:32;;;;;;;;;;;;;;;14.10;64.98;102113.59;5074064;28;20052;-62
2022/05/07 02:44:42;;;;;;;24.52;21.27;;;;;;;13.90;67.16;102109.38;5073725;28;20105;-62
2022/05/07 02:47:08;;;;;;;25.85;22.30;;;;;;;13.89;67.70;102104.16;5072092;28;20106;-62
2022/05/07 02:49:33;;;;;;;30.70;22.77;;;;;;;13.85;67.77;102107.00;5072099;28;20480;-61
2022/05/07 02:51:59;;;;;;;25.08;20.60;;;;;;;13.88;67.70;102097.06;5073478;28;20431;-62
2022/05/07 02:54:25;;;;;;;26.02;21.70;;;;;;;13.81;67.80;102100.06;5073628;28;20099;-62
2022/05/07 02:56:50;;;;;;;26.13;21.95;;;;;;;13.87;67.83;102106.88;5073127;28;20078;-62
2022/05/07 02:59:16;;;;;;;25.23;20.67;;;;;;;13.88;67.77;102105.06;5073343;28;20024;-62
2022/05/07 03:01:41;;;;;;;26.83;21.17;;;;;;;13.82;68.33;102098.25;5072734;28;20037;-62
2022/05/07 03:04:10;;;;;;;26.58;23.23;;;;;;;13.86;68.23;102105.19;5071939;28;20454;-62
2022/05/07 03:06:37;;;;;;;25.77;21.90;;;;;;;13.83;68.33;102092.84;5072200;28;20484;-62
2022/05/07 03:09:06;;;;;;;26.30;21.38;;;;;;;13.68;68.53;102075.00;5073296;28;20033;-62
2022/05/07 03:11:33;;;;;;;28.25;21.38;;;;;;;13.80;68.49;102101.03;5072984;28;20048;-62
2022/05/07 03:14:02;;;;;;;26.52;21.48;;;;;;;13.78;68.88;102092.22;5072147;28;20028;-62
2022/05/07 03:16:28;;;;;;;27.55;20.23;;;;;;;13.71;68.89;102095.34;5055456;28;20486;-62
2022/05/07 03:18:54;;;;;;;26.90;20.65;;;;;;;13.68;69.22;102084.81;5072629;28;20036;-62
2022/05/07 03:21:19;;;;;;;28.20;22.63;;;;;;;13.61;69.37;102097.66;5054903;28;20554;-62
2022/05/07 03:23:46;;;;;;;25.30;21.52;;;;;;;13.66;69.17;102092.06;5072241;28;20044;-62
2022/05/07 03:26:12;;;;;;;27.90;20.88;;;;;;;13.58;69.51;102101.34;5054673;28;20422;-62
2022/05/07 03:28:41;;;;;;;23.45;20.83;;;;;;;13.63;69.59;102103.78;5071734;28;20074;-62
2022/05/07 03:31:07;;;;;;;26.30;21.38;;;;;;;13.53;69.81;102102.56;5072566;28;20013;-62
2022/05/07 03:33:32;;;;;;;28.05;21.73;;;;;;;13.57;69.70;102105.00;5070668;28;20036;-62
2022/05/07 03:35:58;;;;;;;25.40;21.00;;;;;;;13.60;69.45;102095.94;5071779;28;20020;-62
2022/05/07 03:38:24;;;;;;;28.50;21.58;;;;;;;13.66;69.57;102095.59;5071607;28;20033;-62
2022/05/07 03:40:50;;;;;;;33.33;22.67;;;;;;;13.64;69.33;102101.00;5072594;28;20059;-62
2022/05/07 03:43:16;;;;;;;26.48;22.00;;;;;;;13.62;69.56;102110.09;5072634;28;20036;-62
2022/05/07 03:45:42;;;;;;;28.00;21.33;;;;;;;13.61;69.57;102111.88;5072078;28;20028;-62
2022/05/07 03:48:09;;;;;;;30.48;20.20;;;;;;;13.66;69.68;102103.63;5071147;28;20039;-62
2022/05/07 03:50:34;;;;;;;24.73;21.73;;;;;;;13.67;69.52;102108.00;5070930;28;20028;-62
2022/05/07 03:55:44;;;;;;;25.88;20.33;;;;;;;13.52;69.67;102112.41;5071868;28;20047;-62
2022/05/07 03:58:17;;;;;;;29.05;20.45;;;;;;;13.53;69.96;102115.94;5071752;28;20032;-62
2022/05/07 04:00:43;;;;;;;30.58;21.30;;;;;;;13.51;69.65;102121.38;5072262;28;20617;-62
2022/05/07 04:03:10;;;;;;;25.88;20.67;;;;;;;13.48;69.76;102121.53;5072327;28;20497;-61
2022/05/07 04:05:35;;;;;;;28.42;20.95;;;;;;;13.51;69.62;102125.84;5072426;28;20048;-62
2022/05/07 04:08:00;;;;;;;24.50;21.83;;;;;;;13.44;69.62;102119.09;5070920;28;20036;-61
2022/05/07 04:10:28;;;;;;;32.53;23.58;;;;;;;13.47;69.28;102134.97;5071263;28;20486;-61
2022/05/07 04:12:54;;;;;;;31.13;22.30;;;;;;;13.35;69.83;102128.47;5073302;28;20033;-61
2022/05/07 04:15:21;;;;;;;29.13;23.38;;;;;;;13.32;69.94;102136.66;5072167;28;20043;-61
2022/05/07 04:17:47;;;;;;;31.52;23.58;;;;;;;13.32;70.15;102134.84;5071875;28;20494;-62
2022/05/07 04:20:13;;;;;;;36.78;25.50;;;;;;;13.30;69.75;102131.44;5071606;28;20046;-62
2022/05/07 04:22:39;;;;;;;31.05;25.52;;;;;;;13.24;69.94;102136.22;5071787;28;20090;-62
2022/05/07 04:25:06;;;;;;;31.08;25.15;;;;;;;13.22;69.83;102127.41;5070217;28;20073;-61
2022/05/07 04:27:31;;;;;;;33.90;24.10;;;;;;;13.16;70.54;102128.59;5071715;28;20073;-62
2022/05/07 04:29:57;;;;;;;29.95;24.73;;;;;;;13.24;70.55;102133.53;5053554;28;20056;-61
2022/05/07 04:32:27;;;;;;;29.40;25.20;;;;;;;13.24;70.35;102131.72;5070762;28;20058;-61
2022/05/07 04:34:55;;;;;;;35.72;26.38;;;;;;;13.31;70.38;102130.47;5071611;28;20037;-62
2022/05/07 04:37:21;;;;;;;31.42;24.45;;;;;;;13.30;70.36;102126.09;5071639;28;20112;-61
2022/05/07 04:39:47;;;;;;;29.00;24.15;;;;;;;13.34;70.35;102127.63;5070399;28;20029;-62
2022/05/07 04:42:13;;;;;;;30.77;24.02;;;;;;;13.39;70.55;102130.91;5071270;28;20025;-62
2022/05/07 04:44:39;;;;;;;28.17;25.00;;;;;;;13.46;69.83;102131.44;5070090;28;20502;-62
2022/05/07 04:47:05;;;;;;;30.55;25.67;;;;;;;13.34;70.69;102129.44;5071328;28;20085;-62
2022/05/07 04:49:31;;;;;;;36.25;25.90;;;;;;;13.39;70.77;102141.63;5071614;28;20230;-62
2022/05/07 04:51:56;;;;;;;29.42;25.08;;;;;;;13.38;70.83;102139.91;5070726;28;20047;-62
2022/05/07 04:54:22;;;;;;;27.88;24.90;;;;;;;13.39;71.11;102141.63;5071553;28;20525;-62
2022/05/07 04:56:50;;;;;;;31.73;25.48;;;;;;;13.44;70.54;102135.13;5072254;28;20028;-62
2022/05/07 04:59:18;;;;;;;28.60;24.90;;;;;;;13.45;70.97;102145.75;5071130;28;20043;-62
2022/05/07 05:01:44;;;;;;;31.95;25.63;;;;;;;13.49;70.64;102143.78;5071786;28;20024;-62
2022/05/07 05:04:10;;;;;;;32.38;24.40;;;;;;;13.56;70.77;102143.38;5070003;28;20108;-62
2022/05/07 05:06:37;;;;;;;30.02;24.33;;;;;;;13.61;70.58;102149.31;5069791;28;20123;-62
2022/05/07 05:09:06;;;;;;;30.63;25.92;;;;;;;13.60;70.59;102152.94;5071109;28;20456;-62
2022/05/07 05:11:35;;;;;;;31.67;26.58;;;;;;;13.60;70.55;102157.44;5070586;28;20098;-62
2022/05/07 05:14:01;;;;;;;31.13;26.13;;;;;;;13.49;70.97;102154.47;5070559;28;20046;-63
2022/05/07 05:16:29;;;;;;;36.50;30.90;;;;;;;13.61;70.10;102159.16;5070593;28;20095;-62
2022/05/07 05:18:57;;;;;;;36.92;29.70;;;;;;;13.62;70.32;102168.91;5070624;28;20139;-62
2022/05/07 05:21:22;;;;;;;36.05;30.95;;;;;;;13.69;69.99;102172.97;5069145;28;20081;-62
2022/05/07 05:23:48;;;;;;;35.80;30.27;;;;;;;13.67;69.39;102177.53;5051909;28;20041;-62
2022/05/07 05:26:14;;;;;;;42.78;33.10;;;;;;;13.58;69.69;102181.56;5070210;28;20032;-62
2022/05/07 05:28:40;;;;;;;39.65;32.50;;;;;;;13.66;70.16;102175.81;5068913;28;20037;-62
2022/05/07 05:31:08;;;;;;;39.08;33.25;;;;;;;13.68;69.36;102183.72;5069616;28;20433;-62
2022/05/07 05:33:34;;;;;;;39.90;33.30;;;;;;;13.66;69.33;102186.50;5070889;28;20097;-62
2022/05/07 05:36:00;;;;;;;44.58;35.05;;;;;;;13.62;69.95;102184.94;5070068;28;20143;-61
2022/05/07 05:38:26;;;;;;;40.30;34.90;;;;;;;13.66;69.41;102185.66;5069670;28;20055;-62
2022/05/07 05:40:51;;;;;;;37.80;33.63;;;;;;;13.69;69.59;102190.81;5070190;28;20077;-61
2022/05/07 05:43:19;;;;;;;38.38;34.30;;;;;;;13.73;69.66;102184.34;5067513;28;20029;-62
2022/05/07 05:45:46;;;;;;;39.88;34.08;;;;;;;13.72;69.31;102194.19;5069519;28;20479;-62
2022/05/07 05:48:11;;;;;;;39.47;34.97;;;;;;;13.77;69.45;102183.25;5070890;28;20020;-62
2022/05/07 05:50:38;;;;;;;40.22;33.58;;;;;;;13.89;69.29;102193.25;5068170;28;20493;-62
2022/05/07 05:53:04;;;;;;;43.42;35.30;;;;;;;13.91;69.76;102193.16;5052268;28;20025;-62
2022/05/07 05:55:29;;;;;;;40.10;34.97;;;;;;;14.08;68.72;102198.44;5069069;28;20043;-62
2022/05/07 05:57:57;;;;;;;38.70;34.00;;;;;;;14.14;69.06;102190.06;5069855;28;20115;-61
2022/05/07 06:00:23;;;;;;;40.85;35.13;;;;;;;14.16;68.76;102187.31;5070002;28;20029;-62
2022/05/07 06:02:48;;;;;;;40.08;34.50;;;;;;;14.24;68.77;102193.09;5069876;28;20466;-62
2022/05/07 06:05:17;;;;;;;40.22;34.00;;;;;;;14.25;68.43;102187.63;5068689;28;20178;-64
2022/05/07 06:07:43;;;;;;;41.70;32.80;;;;;;;14.32;68.90;102185.47;5069925;28;20028;-62
2022/05/07 06:10:08;;;;;;;41.03;33.05;;;;;;;14.42;68.84;102185.81;5052591;28;20051;-62
2022/05/07 06:12:34;;;;;;;38.55;32.70;;;;;;;14.57;68.25;102190.31;5070030;28;20021;-62
2022/05/07 06:15:00;;;;;;;37.55;31.70;;;;;;;14.59;67.82;102193.78;5069752;28;20020;-61
2022/05/07 06:17:26;;;;;;;36.70;31.20;;;;;;;14.74;67.85;102195.53;5069349;28;20525;-61
2022/05/07 06:19:52;;;;;;;33.40;29.67;;;;;;;14.76;68.19;102190.97;5069085;28;20028;-62
2022/05/07 06:22:18;;;;;;;39.80;29.10;;;;;;;14.93;66.54;102184.59;5069471;28;20032;-62
2022/05/07 06:27:33;;;;;;;34.35;26.83;;;;;;;15.15;65.73;102197.56;5072204;28;20101;-62
2022/05/07 06:30:04;;;;;;;39.13;27.42;;;;;;;15.18;65.94;102194.69;5054762;28;20040;-62
2022/05/07 06:32:42;;;;;;;34.75;25.63;;;;;;;15.21;65.32;102190.97;5066946;28;20100;-62
2022/05/07 06:35:09;;;;;;;30.95;24.65;;;;;;;15.38;64.68;102203.31;5074275;28;20430;-62
2022/05/07 06:37:37;;;;;;;32.88;24.98;;;;;;;15.47;65.00;102210.81;5074582;28;20498;-62
2022/05/07 06:40:07;;;;;;;35.08;24.85;;;;;;;15.43;63.61;102198.53;5070796;28;20414;-62
2022/05/07 06:42:36;;;;;;;31.48;25.20;;;;;;;15.50;63.88;102199.91;5074307;28;20021;-62
2022/05/07 06:45:03;;;;;;;29.03;25.47;;;;;;;15.52;63.51;102208.69;5073730;28;20482;-62
2022/05/07 06:47:28;;;;;;;33.55;25.30;;;;;;;15.54;63.98;102212.16;5074154;28;20076;-62
2022/05/07 06:49:54;;;;;;;31.15;25.17;;;;;;;15.65;63.52;102211.50;5043393;28;20495;-62
2022/05/07 06:52:20;;;;;;;35.58;24.63;;;;;;;15.79;63.05;102210.63;5073100;28;20043;-61
2022/05/07 06:54:45;;;;;;;32.38;24.38;;;;;;;15.88;63.64;102210.94;5073030;28;20035;-62
2022/05/07 06:57:11;;;;;;;30.05;23.77;;;;;;;15.97;62.29;102208.59;5053171;28;20518;-62
2022/05/07 06:59:37;;;;;;;33.28;25.85;;;;;;;15.95;62.78;102205.19;5067122;28;20079;-62
2022/05/07 07:02:05;;;;;;;34.88;26.23;;;;;;;15.94;63.06;102204.28;5073161;28;20036;-62
2022/05/07 07:04:30;;;;;;;34.50;26.52;;;;;;;16.02;62.47;102206.50;5071139;28;20066;-61
2022/05/07 07:06:57;;;;;;;34.70;25.27;;;;;;;16.11;62.19;102204.06;5038604;28;20388;-62
2022/05/07 07:09:22;;;;;;;31.98;24.85;;;;;;;16.17;61.18;102205.50;5072810;28;20032;-62
2022/05/07 07:11:47;;;;;;;32.63;24.88;;;;;;;16.31;61.22;102204.59;5072611;28;20601;-62
2022/05/07 07:14:13;;;;;;;33.83;24.05;;;;;;;16.44;61.38;102212.69;5073520;28;20510;-62
2022/05/07 07:16:41;;;;;;;28.25;22.73;;;;;;;16.45;60.54;102206.38;5053847;28;20044;-61
2022/05/07 07:19:07;;;;;;;31.00;24.55;;;;;;;16.50;60.96;102212.28;5071806;28;20025;-61
2022/05/07 07:21:32;;;;;;;30.98;24.17;;;;;;;16.71;60.67;102207.34;5072828;28;20684;-62
2022/05/07 07:23:59;;;;;;;31.58;24.05;;;;;;;16.84;60.39;102208.25;5071475;28;20043;-61
2022/05/07 07:26:25;;;;;;;28.33;22.40;;;;;;;16.97;59.66;102211.84;5071748;28;20111;-61
2022/05/07 07:28:50;;;;;;;33.15;23.10;;;;;;;17.02;59.37;102206.97;5073466;28;20032;-62
2022/05/07 07:31:16;;;;;;;31.33;21.38;;;;;;;17.11;58.75;102207.31;5072162;28;20048;-62
2022/05/07 07:33:42;;;;;;;32.10;22.92;;;;;;;17.15;58.76;102207.03;5087684;28;20035;-61
2022/05/07 07:36:09;;;;;;;32.63;23.45;;;;;;;17.35;58.69;102212.81;5071956;28;20111;-61
2022/05/07 07:38:35;;;;;;;31.65;23.95;;;;;;;17.34;57.48;102209.28;5070584;28;20471;-61
2022/05/07 07:41:07;;;;;;;31.42;22.50;;;;;;;17.36;57.83;102210.03;5083248;28;20037;-61
2022/05/07 07:43:33;;;;;;;31.73;22.67;;;;;;;17.59;57.25;102211.13;5068483;28;20056;-62
2022/05/07 07:48:42;;;;;;;33.72;22.92;;;;;;;17.90;56.74;102201.72;5071847;28;20102;-61
2022/05/07 07:51:08;;;;;;;27.40;20.52;;;;;;;18.01;56.13;102206.34;5072904;28;20029;-61
2022/05/07 07:53:35;;;;;;;29.35;21.23;;;;;;;18.13;56.29;102205.44;5071402;28;20031;-62
2022/05/07 07:56:00;;;;;;;30.40;21.63;;;;;;;18.24;55.97;102207.34;5072193;28;20024;-62
2022/05/07 07:58:26;;;;;;;28.23;21.65;;;;;;;18.40;55.12;102215.13;5072222;28;20372;-62
2022/05/07 08:00:54;;;;;;;28.73;21.27;;;;;;;18.52;55.08;102197.19;5071148;28;20029;-62
2022/05/07 08:03:20;;;;;;;33.10;21.77;;;;;;;18.59;54.53;102204.72;5071157;28;20087;-62
2022/05/07 08:05:51;;;;;;;31.20;21.85;;;;;;;18.70;53.31;102208.41;5071340;28;20059;-62
2022/05/07 08:13:48;;;;;;;28.25;21.40;;;;;;;18.90;52.42;102205.09;5071566;28;20094;-62
2022/05/07 08:16:17;;;;;;;28.08;19.95;;;;;;;18.84;51.42;102194.78;5071273;28;20028;-62
2022/05/07 08:18:43;;;;;;;25.85;19.08;;;;;;;18.95;52.08;102200.22;5071229;28;20467;-62
2022/05/07 08:21:12;;;;;;;32.83;21.65;;;;;;;19.09;51.89;102199.16;5070415;28;20051;-62
2022/05/07 08:23:38;;;;;;;30.55;22.63;;;;;;;19.02;51.29;102196.06;5071951;28;20044;-61
2022/05/07 08:26:05;;;;;;;30.95;21.55;;;;;;;19.06;51.71;102210.19;5072344;28;20111;-62
2022/05/07 08:28:31;;;;;;;31.40;23.25;;;;;;;18.95;52.17;102202.91;5069733;28;20555;-62
2022/05/07 08:30:57;;;;;;;28.58;20.83;;;;;;;19.01;51.26;102215.06;5071167;28;20024;-62
2022/05/07 08:33:22;;;;;;;27.60;21.73;;;;;;;19.02;51.83;102206.00;5071711;28;20112;-62
2022/05/07 08:35:48;;;;;;;28.27;20.40;;;;;;;19.18;52.61;102211.06;5069416;28;20111;-62
2022/05/07 08:38:14;;;;;;;29.63;22.00;;;;;;;19.26;52.07;102214.88;5071409;28;20036;-62
2022/05/07 08:40:40;;;;;;;29.35;22.05;;;;;;;19.17;50.43;102220.97;5071525;28;21342;-62
2022/05/07 08:43:06;;;;;;;30.90;23.25;;;;;;;19.09;50.03;102214.47;5070917;28;20025;-62
2022/05/07 08:45:32;;;;;;;32.13;22.30;;;;;;;19.46;50.21;102221.41;5071564;28;20031;-62
2022/05/07 08:47:59;;;;;;;31.50;22.83;;;;;;;19.64;50.05;102219.06;5071576;28;20453;-62
2022/05/07 08:50:26;;;;;;;31.50;21.55;;;;;;;19.79;49.19;102208.94;5069211;28;20066;-62
2022/05/07 08:52:52;;;;;;;30.83;20.48;;;;;;;19.99;49.41;102217.25;5070303;28;20017;-62
2022/05/07 08:55:20;;;;;;;30.65;21.55;;;;;;;20.11;48.55;102210.84;5070049;28;20025;-62
2022/05/07 08:57:47;;;;;;;29.50;20.75;;;;;;;20.27;48.48;102215.88;5069907;28;20036;-62
2022/05/07 09:00:15;;;;;;;30.17;21.15;;;;;;;20.52;48.37;102209.28;5070904;28;20074;-62
2022/05/07 09:02:49;;;;;;;28.80;21.30;;;;;;;20.76;47.16;102211.78;5069715;28;20020;-62
2022/05/07 09:05:18;;;;;;;30.15;21.05;;;;;;;20.94;47.44;102214.78;5066508;28;20055;-62
2022/05/07 09:07:58;;;;;;;31.23;21.25;;;;;;;21.06;46.32;102219.13;5071286;28;20066;-62
2022/05/07 09:10:32;;;;;;;32.88;21.00;;;;;;;21.15;46.20;102212.06;5069903;28;20050;-62
2022/05/07 09:13:07;;;;;;;29.02;21.33;;;;;;;21.01;47.29;102216.00;5069847;28;20104;-62
2022/05/07 09:15:33;;;;;;;30.38;23.05;;;;;;;20.84;45.24;102212.84;5070383;28;20085;-62
2022/05/07 09:17:58;;;;;;;31.13;22.40;;;;;;;20.86;46.31;102205.47;5069881;28;20033;-62
2022/05/07 09:20:26;;;;;;;31.05;20.88;;;;;;;20.86;46.67;102204.63;5051282;28;20089;-62
2022/05/07 09:22:55;;;;;;;33.35;23.05;;;;;;;20.83;47.08;102194.94;5064738;28;20029;-62
2022/05/07 09:25:22;;;;;;;30.80;21.85;;;;;;;21.03;46.57;102195.03;5068251;28;20475;-62
2022/05/07 09:27:54;;;;;;;30.45;19.90;;;;;;;21.45;45.97;102195.91;5068809;28;20028;-62
2022/05/07 09:30:27;;;;;;;29.98;20.45;;;;;;;21.85;46.03;102192.34;5070229;28;20735;-62
2022/05/07 09:32:57;;;;;;;27.55;21.13;;;;;;;21.91;44.60;102188.25;5070787;28;20119;-62
2022/05/07 09:38:11;;;;;;;;;;;;;;;22.14;45.02;102197.00;5071338;28;20039;-63
2022/05/07 09:40:41;;;;;;;34.70;21.92;;;;;;;21.97;44.13;102212.06;5070665;28;19908;-62
2022/05/07 09:43:11;;;;;;;30.65;24.17;;;;;;;21.96;44.08;102208.50;5070649;28;20055;-62
2022/05/07 09:45:40;;;;;;;32.78;24.30;;;;;;;21.93;43.76;102205.22;5069260;28;20111;-62
2022/05/07 09:48:06;;;;;;;;;;;;;;;22.17;45.18;102211.16;5084155;28;20021;-62
2022/05/07 09:58:38;;;;;;;32.85;24.05;;;;;;;22.43;43.65;102208.78;5069685;28;19923;-62
2022/05/07 10:01:15;;;;;;;41.17;24.40;;;;;;;22.59;43.03;102196.50;5068415;28;20032;-62
2022/05/07 10:03:45;;;;;;;33.75;25.30;;;;;;;22.62;42.24;102201.69;5068688;28;20498;-62
2022/05/07 10:06:39;;;;;;;35.28;24.98;;;;;;;22.75;43.09;102198.66;5073664;28;20053;-62
2022/05/07 10:09:19;;;;;;;33.00;23.42;;;;;;;22.81;41.69;102201.66;5059513;28;20036;-64
2022/05/07 10:11:54;;;;;;;31.70;23.48;;;;;;;22.86;41.38;102196.66;5066529;28;20039;-62
2022/05/07 10:14:26;;;;;;;34.00;23.00;;;;;;;22.93;41.13;102198.81;5075020;28;20025;-64
2022/05/07 10:17:09;;;;;;;29.17;21.15;;;;;;;23.14;39.90;102202.22;5075136;28;20024;-65
2022/05/07 10:19:35;;;;;;;22.65;18.67;;;;;;;23.28;38.52;102193.63;5073406;28;20025;-64
2022/05/07 10:22:01;;;;;;;26.70;18.27;;;;;;;23.13;38.82;102190.50;5073020;28;20028;-64
2022/05/07 10:24:27;;;;;;;23.10;18.13;;;;;;;23.31;38.27;102185.16;5074354;28;20044;-64
2022/05/07 10:26:53;;;;;;;23.63;16.52;;;;;;;23.52;38.41;102189.53;5074222;28;20059;-63
2022/05/07 10:29:30;;;;;;;22.92;14.57;;;;;;;23.64;36.77;102196.47;5056244;28;20036;-65
2022/05/07 10:32:03;;;;;;;20.52;15.00;;;;;;;23.65;35.74;102184.63;5072966;28;20463;-64
2022/05/07 10:34:29;;;;;;;19.80;13.38;;;;;;;23.83;34.94;102183.88;5073158;28;20027;-65
2022/05/07 10:37:05;;;;;;;20.48;15.77;;;;;;;23.91;36.18;102178.50;5074234;28;20460;-64
2022/05/07 10:39:32;;;;;;;19.35;12.98;;;;;;;24.00;34.35;102189.34;5073691;28;20538;-65
2022/05/07 10:42:01;;;;;;;21.42;14.80;;;;;;;23.94;35.26;102186.34;5073912;28;20025;-64
2022/05/07 10:44:32;;;;;;;17.73;12.95;;;;;;;23.84;35.69;102180.13;5076534;28;20107;-64
2022/05/07 10:47:09;;;;;;;20.50;14.38;;;;;;;24.05;36.09;102175.28;5077845;28;20059;-64
2022/05/07 10:49:38;;;;;;;17.33;12.13;;;;;;;24.19;36.21;102163.88;5073914;28;20023;-63
2022/05/07 10:52:04;;;;;;;20.25;11.18;;;;;;;24.36;35.15;102174.94;5074286;28;20055;-64
2022/05/07 10:54:29;;;;;;;15.48;10.65;;;;;;;24.59;34.63;102176.22;5073644;28;20459;-64
2022/05/07 10:56:57;;;;;;;19.10;12.93;;;;;;;24.51;34.90;102180.72;5073110;28;20106;-64
2022/05/07 10:59:26;;;;;;;18.90;12.48;;;;;;;24.56;34.87;102172.94;5074059;28;20443;-63
2022/05/07 11:02:02;;;;;;;;;;;;;;;24.74;34.50;102175.63;5074349;28;20051;-64
2022/05/07 11:04:28;;;;;;;19.77;12.38;;;;;;;24.05;36.03;102161.69;5073612;28;20011;-64
2022/05/07 11:06:54;;;;;;;17.73;12.55;;;;;;;23.94;36.37;102173.66;5074002;28;20112;-64
2022/05/07 11:09:19;;;;;;;22.95;13.32;;;;;;;23.60;36.59;102169.78;5073806;28;20115;-64
2022/05/07 11:11:47;;;;;;;22.92;14.32;;;;;;;23.30;36.62;102175.31;5074134;28;20467;-64
2022/05/07 11:14:30;;;;;;;21.77;12.85;;;;;;;23.50;38.10;102167.09;5072408;28;20033;-64
2022/05/07 11:16:57;;;;;;;17.58;11.68;;;;;;;23.82;37.57;102158.53;5073984;28;20020;-64
2022/05/07 11:19:42;;;;;;;16.80;11.95;;;;;;;23.72;37.24;102168.63;5073318;28;20025;-64
2022/05/07 11:22:10;;;;;;;17.42;11.45;;;;;;;23.38;37.34;102165.56;5073605;28;20099;-64
2022/05/07 11:24:36;;;;;;;18.85;11.32;;;;;;;23.21;38.51;102167.22;5055658;28;20048;-64
2022/05/07 11:27:06;;;;;;;17.80;11.63;;;;;;;23.12;38.27;102172.53;5073508;28;20060;-64
2022/05/07 11:29:33;;;;;;;22.70;11.82;;;;;;;22.97;38.95;102171.28;5072334;28;20025;-64
2022/05/07 11:32:01;;;;;;;17.30;11.70;;;;;;;23.18;39.68;102168.38;5073662;28;20016;-64
2022/05/07 11:34:34;;;;;;;15.90;10.87;;;;;;;23.40;39.88;102163.56;5071834;28;20179;-64
2022/05/07 11:37:14;;;;;;;18.55;11.32;;;;;;;23.38;40.09;102162.84;5073365;28;20028;-64
2022/05/07 11:40:00;;;;;;;21.90;11.85;;;;;;;23.41;39.76;102165.28;5073210;28;20502;-64